Savanna, Illinois
Current Conditions -  °F | °C
As of 12:15 PM on Friday 24 Oct 2014 (Local Time) from KSFY Reporting Station
Haze Haze  
Wind Chill: 53°   Ceiling: 400
Heat Index: 53°   Visibility: 2.5mi
Dew Point: 52°   Wind: 7mph
Humidity: 95%   Direction: 200°SSW
Pressure: 30.05"   Gusts: NA
Location:  42.09°N, 90.16°W
Report Text: KSFY 241715Z AUTO 20006KT 2 1/2SM BR OVC004 12/11 A3005 RMK AO2 T01180110
Loading
Personal Weather Stations






























Interactive Weather Map
Tropical Storm Tracking
New forecast layout! Learn more

10-Day Weather Forecast

Advertisements
Track Severe Weather on mobile